Nyk Rumina — 9V7645 — position and weather

sailwx.info

Track history (hours):
 
Tides and Currents Weather Stations Pressure Air Temp Water Temp Dewpoint Dewpoint Depression Visibility Wind Speed Wind Dir Waves Ship Positions

Nyk Rumina

Last reported at 2018-Jun-19 01:00 UTC. Time now 2018-Jun-19 00:56 UTC.
Position N 50°38' E 000°34'.

Length 294 m; draft 7.1 m.

Type: Ship. MMSI: 563758000.

Date/timePositionNaut miles runAvg speedWind from/ knotsBaromVisibWave heightAir tempDewpointWater temp
2018-Jun-19 01:00N 50°38' E 000°34'510.4
2018-Jun-19 00:30N 50°41' E 000°40'510.6
2018-Jun-19 00:00N 50°44' E 000°47'611.4
2018-Jun-18 23:30N 50°48' E 000°54'612.8
2018-Jun-18 23:00N 50°52' E 001°02'713.7
2018-Jun-18 22:30N 50°56' E 001°11'714.2
2018-Jun-18 22:00N 51°00' E 001°20'714.3
2018-Jun-18 21:30N 51°04' E 001°29'713.5
2018-Jun-18 21:01N 51°09' E 001°38'713.0
2018-Jun-18 20:31N 51°13' E 001°45'612.6
2018-Jun-18 20:00N 51°18' E 001°51'612.4
2018-Jun-18 19:30N 51°24' E 001°56'510.6
2018-Jun-18 19:01N 51°24' E 002°04'612.5
2018-Jun-18 18:30N 51°22' E 002°13'510.8
2018-Jun-18 18:01N 51°21' E 002°22'510.5
2018-Jun-18 17:30N 51°23' E 002°30'510.6
2018-Jun-18 17:00N 51°23' E 002°38'5 9.5
2018-Jun-18 16:31N 51°23' E 002°46'4 8.9
2018-Jun-18 16:00N 51°23' E 002°53'611.2
2018-Jun-18 15:30N 51°24' E 003°01'510.4
2018-Jun-18 15:00N 51°24' E 003°10'510.7
2018-Jun-18 14:30N 51°25' E 003°18'611.7
2018-Jun-18 14:01N 51°25' E 003°28'510.0
2018-Jun-18 13:31N 51°26' E 003°36'3 7.0
2018-Jun-18 13:01N 51°26' E 003°41'611.1
2018-Jun-18 12:31N 51°22' E 003°46'611.6
2018-Jun-18 12:00N 51°22' E 003°56'5 9.6
2018-Jun-18 11:30N 51°25' E 004°02'611.1
2018-Jun-18 11:00N 51°24' E 004°11'5 9.5
2018-Jun-18 10:31N 51°21' E 004°17'0 0.8
2018-Jun-18 10:00N 51°21' E 004°17'0 0.0
2018-Jun-18 09:30N 51°21' E 004°17'1 1.0
2018-Jun-18 09:00N 51°21' E 004°18'3 6.9
2018-Jun-18 08:31N 51°17' E 004°20'2 4.6
2018-Jun-18 08:01N 51°15' E 004°21'0 0.1
2018-Jun-18 07:30N 51°15' E 004°21'0 0.0
2018-Jun-18 07:00N 51°15' E 004°21'0 0.0
2018-Jun-18 06:30N 51°15' E 004°21'0 0.0
2018-Jun-18 06:00N 51°15' E 004°21'0 0.0
2018-Jun-18 05:30N 51°15' E 004°21'0 0.0
2018-Jun-18 05:00N 51°15' E 004°21'0 0.0
2018-Jun-18 04:30N 51°15' E 004°21'0 0.0
2018-Jun-18 04:00N 51°15' E 004°21'0 0.0
2018-Jun-18 03:30N 51°15' E 004°21'0 0.0
2018-Jun-18 03:01N 51°15' E 004°21'0 0.0
2018-Jun-18 02:30N 51°15' E 004°21'0 0.0
2018-Jun-18 02:00N 51°15' E 004°21'0 0.0
2018-Jun-18 01:30N 51°15' E 004°21'0 0.0
2018-Jun-18 01:00N 51°15' E 004°21'0 0.0
2018-Jun-18 00:30N 51°15' E 004°21'0 0.0
2018-Jun-18 00:00N 51°15' E 004°21'0 0.0
2018-Jun-17 23:30N 51°15' E 004°21'0 0.0
2018-Jun-17 22:57N 51°15' E 004°21'0 0.0
2018-Jun-17 22:27N 51°15' E 004°21'0 0.0
2018-Jun-17 22:00N 51°15' E 004°21'0 0.0
2018-Jun-17 21:30N 51°15' E 004°21'0 0.0
2018-Jun-17 21:00N 51°15' E 004°21'0 0.0
2018-Jun-17 20:30N 51°15' E 004°21'0 0.0
2018-Jun-17 20:00N 51°15' E 004°21'0 0.0
2018-Jun-17 19:30N 51°15' E 004°21'0 0.0
2018-Jun-17 19:00N 51°15' E 004°21'0 0.0
2018-Jun-17 18:30N 51°15' E 004°21'0 0.0
2018-Jun-17 18:00N 51°15' E 004°21'0 0.0
2018-Jun-17 17:30N 51°15' E 004°21'0 0.0
2018-Jun-17 17:00N 51°15' E 004°21'0 0.0
2018-Jun-17 16:30N 51°15' E 004°21'0 0.0
2018-Jun-17 16:00N 51°15' E 004°21'0 0.0
2018-Jun-17 15:27N 51°15' E 004°21'0 0.0
2018-Jun-17 15:00N 51°15' E 004°21'0 0.0
2018-Jun-17 14:30N 51°15' E 004°21'0 0.0
2018-Jun-17 14:00N 51°15' E 004°21'0 0.0
2018-Jun-17 13:30N 51°15' E 004°21'0 0.0
2018-Jun-17 13:00N 51°15' E 004°21'0 0.0
2018-Jun-17 12:30N 51°15' E 004°21'0 0.0
2018-Jun-17 12:00N 51°15' E 004°21'0 0.0
2018-Jun-17 11:30N 51°15' E 004°21'0 0.0
2018-Jun-17 11:00N 51°15' E 004°21'0 0.0
2018-Jun-17 10:30N 51°15' E 004°21'0 0.0
2018-Jun-17 10:01N 51°15' E 004°21'0 0.0
2018-Jun-17 09:30N 51°15' E 004°21'0 0.0
2018-Jun-17 09:00N 51°15' E 004°21'0 0.0
2018-Jun-17 08:30N 51°15' E 004°21'0 0.0
2018-Jun-17 08:00N 51°15' E 004°21'0 0.0
2018-Jun-17 07:30N 51°15' E 004°21'0 0.0
2018-Jun-17 07:00N 51°15' E 004°21'0 0.0
2018-Jun-17 06:30N 51°15' E 004°21'0 0.0
2018-Jun-17 06:00N 51°15' E 004°21'0 0.0
2018-Jun-17 05:30N 51°15' E 004°21'0 0.0
2018-Jun-17 05:00N 51°15' E 004°21'0 0.0
2018-Jun-17 04:30N 51°15' E 004°21'0 0.0
2018-Jun-17 04:00N 51°15' E 004°21'0 0.0
2018-Jun-17 03:30N 51°15' E 004°21'0 0.0
2018-Jun-17 03:00N 51°15' E 004°21'0 0.0
2018-Jun-17 02:30N 51°15' E 004°21'0 0.0
2018-Jun-17 02:00N 51°15' E 004°21'0 0.0
2018-Jun-17 01:30N 51°15' E 004°21'0 0.0
2018-Jun-17 01:00N 51°15' E 004°21'0 0.0
2018-Jun-17 00:30N 51°15' E 004°21'0 0.0
2018-Jun-17 00:00N 51°15' E 004°21'0 0.0
2018-Jun-16 23:30N 51°15' E 004°21'0 0.0
2018-Jun-16 23:00N 51°15' E 004°21'0 0.0
2018-Jun-16 22:30N 51°15' E 004°21'0 0.0
2018-Jun-16 22:00N 51°15' E 004°21'0 0.0
2018-Jun-16 21:30N 51°15' E 004°21'0 0.0
2018-Jun-16 21:00N 51°15' E 004°21'0 0.0
2018-Jun-16 20:30N 51°15' E 004°21'0 0.0
2018-Jun-16 20:00N 51°15' E 004°21'0 0.0
2018-Jun-16 19:30N 51°15' E 004°21'0 0.0
2018-Jun-16 19:00N 51°15' E 004°21'0 0.0
2018-Jun-16 18:30N 51°15' E 004°21'0 0.0
2018-Jun-16 18:00N 51°15' E 004°21'0 0.0
2018-Jun-16 17:30N 51°15' E 004°21'0 0.0
2018-Jun-16 17:00N 51°15' E 004°21'0 0.0
2018-Jun-16 16:30N 51°15' E 004°21'0 0.0
2018-Jun-16 16:00N 51°15' E 004°21'0 0.0
2018-Jun-16 15:30N 51°15' E 004°21'0 0.0
2018-Jun-16 15:00N 51°15' E 004°21'0 0.0
2018-Jun-16 14:30N 51°15' E 004°21'0 0.0
2018-Jun-16 14:00N 51°15' E 004°21'0 0.0
2018-Jun-16 13:30N 51°15' E 004°21'0 0.0
2018-Jun-16 13:00N 51°15' E 004°21'0 0.0
2018-Jun-16 12:30N 51°15' E 004°21'0 0.0
2018-Jun-16 11:57N 51°15' E 004°21'0 0.0
2018-Jun-16 11:30N 51°15' E 004°21'0 0.0
2018-Jun-16 11:00N 51°15' E 004°21'0 0.0
2018-Jun-16 10:30N 51°15' E 004°21'0 0.0
2018-Jun-16 10:00N 51°15' E 004°21'0 0.0
2018-Jun-16 09:30N 51°15' E 004°21'0 0.0
2018-Jun-16 09:00N 51°15' E 004°21'0 0.0
2018-Jun-16 08:30N 51°15' E 004°21'0 0.0
2018-Jun-16 08:00N 51°15' E 004°21'0 0.0
2018-Jun-16 07:30N 51°15' E 004°21'0 0.0
2018-Jun-16 07:00N 51°15' E 004°21'0 0.0
2018-Jun-16 06:30N 51°15' E 004°21'0 0.0
2018-Jun-16 06:00N 51°15' E 004°21'0 0.0
2018-Jun-16 05:30N 51°15' E 004°21'0 0.0
2018-Jun-16 05:00N 51°15' E 004°21'0 0.0
2018-Jun-16 04:30N 51°15' E 004°21'0 0.0
2018-Jun-16 04:00N 51°15' E 004°21'0 0.0
2018-Jun-16 03:30N 51°15' E 004°21'0 0.0
2018-Jun-16 03:00N 51°15' E 004°21'0 0.0
2018-Jun-16 02:30N 51°15' E 004°21'0 0.0
2018-Jun-16 02:00N 51°15' E 004°21'0 0.0
2018-Jun-16 01:30N 51°15' E 004°21'0 0.0
2018-Jun-16 01:00N 51°15' E 004°21'0 0.0
2018-Jun-16 00:30N 51°15' E 004°21'0 0.0
2018-Jun-16 00:00N 51°15' E 004°21'0 0.0
2018-Jun-15 23:30N 51°15' E 004°21'0 0.0
2018-Jun-15 23:00N 51°15' E 004°21'0 0.0
2018-Jun-15 22:30N 51°15' E 004°21'0 0.0
2018-Jun-15 22:01N 51°15' E 004°21'0 0.0
2018-Jun-15 21:30N 51°15' E 004°21'0 0.0
2018-Jun-15 21:00N 51°15' E 004°21'0 0.0
2018-Jun-15 20:30N 51°15' E 004°21'0 0.0
2018-Jun-15 20:00N 51°15' E 004°21'0 0.0
2018-Jun-15 19:30N 51°15' E 004°21'0 0.0
2018-Jun-15 19:00N 51°15' E 004°21'0 0.0
2018-Jun-15 18:30N 51°15' E 004°21'0 0.0
2018-Jun-15 18:00N 51°15' E 004°21'0 0.0
2018-Jun-15 17:30N 51°15' E 004°21'0 0.0
2018-Jun-15 17:00N 51°15' E 004°21'0 0.0
2018-Jun-15 16:27N 51°15' E 004°21'0 0.0
2018-Jun-15 16:00N 51°15' E 004°21'0 0.0
2018-Jun-15 15:30N 51°15' E 004°21'0 0.0
2018-Jun-15 15:00N 51°15' E 004°21'0 0.0
2018-Jun-15 14:30N 51°15' E 004°21'0 0.0
2018-Jun-15 14:00N 51°15' E 004°21'0 0.0
2018-Jun-15 13:30N 51°15' E 004°21'0 0.0
2018-Jun-15 13:00N 51°15' E 004°21'0 0.0
2018-Jun-15 12:30N 51°15' E 004°21'0 0.0
2018-Jun-15 12:00N 51°15' E 004°21'0 0.0
2018-Jun-15 11:30N 51°15' E 004°21'0 0.0
2018-Jun-15 11:00N 51°15' E 004°21'0 0.1
2018-Jun-15 10:30N 51°15' E 004°21'0 0.1
2018-Jun-15 09:59N 51°15' E 004°21'0 0.0
2018-Jun-15 09:29N 51°15' E 004°21'0 0.0
2018-Jun-15 08:59N 51°15' E 004°21'0 0.0
2018-Jun-15 08:29N 51°15' E 004°21'0 0.0
2018-Jun-15 07:59N 51°15' E 004°21'0 0.0
2018-Jun-15 07:29N 51°15' E 004°21'0 0.0
2018-Jun-15 06:59N 51°15' E 004°21'0 0.0
2018-Jun-15 06:29N 51°15' E 004°21'0 0.0
2018-Jun-15 05:59N 51°15' E 004°21'0 0.0
2018-Jun-15 05:29N 51°15' E 004°21'0 0.0
2018-Jun-15 04:59N 51°15' E 004°21'0 0.0
2018-Jun-15 04:29N 51°15' E 004°21'0 0.0
2018-Jun-15 03:59N 51°15' E 004°21'0 0.0
2018-Jun-15 03:29N 51°15' E 004°21'0 0.0
2018-Jun-15 02:59N 51°15' E 004°21'0 0.0
2018-Jun-15 02:29N 51°15' E 004°21'0 0.0
2018-Jun-15 01:59N 51°15' E 004°21'0 0.0
2018-Jun-15 01:29N 51°15' E 004°21'0 0.0
2018-Jun-15 00:59N 51°15' E 004°21'0 0.0
2018-Jun-15 00:29N 51°15' E 004°21'0 0.0
2018-Jun-14 23:59N 51°15' E 004°21'0 0.0
2018-Jun-14 23:29N 51°15' E 004°21'0 0.0
2018-Jun-14 22:59N 51°15' E 004°21'0 0.0
2018-Jun-14 22:29N 51°15' E 004°21'0 0.0
2018-Jun-14 21:59N 51°15' E 004°21'0 0.0
2018-Jun-14 21:29N 51°15' E 004°21'0 0.0
2018-Jun-14 20:59N 51°15' E 004°21'0 0.0
2018-Jun-14 20:29N 51°15' E 004°21'0 0.0
2018-Jun-14 19:59N 51°15' E 004°21'0 0.0
2018-Jun-14 19:29N 51°15' E 004°21'0 0.0
2018-Jun-14 18:59N 51°15' E 004°21'0 0.0
2018-Jun-14 18:29N 51°15' E 004°21'0 0.0
2018-Jun-14 17:59N 51°15' E 004°21'0 0.0
2018-Jun-14 17:29N 51°15' E 004°21'0 0.0
2018-Jun-14 16:59N 51°15' E 004°21'0 0.0
2018-Jun-14 16:29N 51°15' E 004°21'0 0.0
2018-Jun-14 15:59N 51°15' E 004°21'0 0.0
2018-Jun-14 15:29N 51°15' E 004°21'0 0.0
2018-Jun-14 14:56N 51°15' E 004°21'0 0.0
2018-Jun-14 14:29N 51°15' E 004°21'0 0.0
2018-Jun-14 13:59N 51°15' E 004°21'0 0.0
2018-Jun-14 13:29N 51°15' E 004°21'0 0.0
2018-Jun-14 12:56N 51°15' E 004°21'0 0.0
2018-Jun-14 12:29N 51°15' E 004°21'0 0.0
2018-Jun-14 11:59N 51°15' E 004°21'0 0.0
2018-Jun-14 11:29N 51°15' E 004°21'0 0.0
2018-Jun-14 10:56N 51°15' E 004°21'0 0.0
2018-Jun-14 10:29N 51°15' E 004°21'0 0.0
2018-Jun-14 09:59N 51°15' E 004°21'0 0.0
2018-Jun-14 09:29N 51°15' E 004°21'0 0.0
2018-Jun-14 08:59N 51°15' E 004°21'0 0.0
2018-Jun-14 08:29N 51°15' E 004°21'0 0.0
2018-Jun-14 07:59N 51°15' E 004°21'0 0.0
2018-Jun-14 07:29N 51°15' E 004°21'0 0.0
2018-Jun-14 06:59N 51°15' E 004°21'0 0.0
2018-Jun-14 06:29N 51°15' E 004°21'0 0.0
2018-Jun-14 05:59N 51°15' E 004°21'0 0.0
2018-Jun-14 05:29N 51°15' E 004°21'0 0.0
2018-Jun-14 04:59N 51°15' E 004°21'0 0.0
2018-Jun-14 04:29N 51°15' E 004°21'0 0.0
2018-Jun-14 03:59N 51°15' E 004°21'0 0.0
2018-Jun-14 03:26N 51°15' E 004°21'0 0.0
2018-Jun-14 02:56N 51°15' E 004°21'0 0.0
2018-Jun-14 02:29N 51°15' E 004°21'0 0.0
2018-Jun-14 01:59N 51°15' E 004°21'0 0.0
2018-Jun-14 01:29N 51°15' E 004°21'0 0.0
2018-Jun-14 00:59N 51°15' E 004°21'0 0.0
2018-Jun-14 00:29N 51°15' E 004°21'0 0.0
2018-Jun-13 23:59N 51°15' E 004°21'0 0.0
2018-Jun-13 23:29N 51°15' E 004°21'0 0.0
2018-Jun-13 22:59N 51°15' E 004°21'0 0.0
2018-Jun-13 22:29N 51°15' E 004°21'0 0.0
2018-Jun-13 21:59N 51°15' E 004°21'0 0.0
2018-Jun-13 21:29N 51°15' E 004°21'0 0.0
2018-Jun-13 20:59N 51°15' E 004°21'0 0.0
2018-Jun-13 20:29N 51°15' E 004°21'0 0.0
2018-Jun-13 19:59N 51°15' E 004°21'0 0.0
2018-Jun-13 19:29N 51°15' E 004°21'0 0.0
2018-Jun-13 18:59N 51°15' E 004°21'0 0.0
2018-Jun-13 18:29N 51°15' E 004°21'0 0.0
2018-Jun-13 17:59N 51°15' E 004°21'0 0.0
2018-Jun-13 17:26N 51°15' E 004°21'0 0.0
2018-Jun-13 16:59N 51°15' E 004°21'0 0.0
2018-Jun-13 16:29N 51°15' E 004°21'0 0.0
2018-Jun-13 15:59N 51°15' E 004°21'0 0.0
2018-Jun-13 15:29N 51°15' E 004°21'0 0.0
2018-Jun-13 14:59N 51°15' E 004°21'0 0.0
2018-Jun-13 14:29N 51°15' E 004°21'0 0.0
2018-Jun-13 13:59N 51°15' E 004°21'0 0.0
2018-Jun-13 13:29N 51°15' E 004°21'0 0.0
2018-Jun-13 12:59N 51°15' E 004°21'0 0.0
2018-Jun-13 12:29N 51°15' E 004°21'0 0.0
2018-Jun-13 11:59N 51°15' E 004°21'0 0.0
2018-Jun-13 11:29N 51°15' E 004°21'0 0.0
2018-Jun-13 10:59N 51°15' E 004°21'0 0.0
2018-Jun-13 10:29N 51°15' E 004°21'0 0.0
2018-Jun-13 09:59N 51°15' E 004°21'0 0.0
2018-Jun-13 09:29N 51°15' E 004°21'0 0.0
2018-Jun-13 08:59N 51°15' E 004°21'0 0.0
2018-Jun-13 08:29N 51°15' E 004°21'0 0.0
2018-Jun-13 07:59N 51°15' E 004°21'0 0.0
2018-Jun-13 07:29N 51°15' E 004°21'0 0.0
2018-Jun-13 06:59N 51°15' E 004°21'0 0.0
2018-Jun-13 06:29N 51°15' E 004°21'0 0.0
2018-Jun-13 05:59N 51°15' E 004°21'0 0.0
2018-Jun-13 05:29N 51°15' E 004°21'0 0.0
2018-Jun-13 04:59N 51°15' E 004°21'0 0.0
2018-Jun-13 04:29N 51°15' E 004°21'0 0.0
2018-Jun-13 03:59N 51°15' E 004°21'0 0.0
2018-Jun-13 03:29N 51°15' E 004°21'0 0.0
2018-Jun-13 02:59N 51°15' E 004°21'0 0.0
2018-Jun-13 02:29N 51°15' E 004°21'0 0.0
2018-Jun-13 01:59N 51°15' E 004°21'0 0.0
2018-Jun-13 01:29N 51°15' E 004°21'0 0.0
2018-Jun-13 00:59N 51°15' E 004°21'0 0.0
2018-Jun-13 00:29N 51°15' E 004°21'0 0.0
2018-Jun-12 23:59N 51°15' E 004°21'0 0.0
2018-Jun-12 23:29N 51°15' E 004°21'0 0.0
2018-Jun-12 22:59N 51°15' E 004°21'0 0.0
2018-Jun-12 22:29N 51°15' E 004°21'0 0.0
2018-Jun-12 21:59N 51°15' E 004°21'0 0.0
2018-Jun-12 21:29N 51°15' E 004°21'0 0.0
2018-Jun-12 20:59N 51°15' E 004°21'0 0.0
2018-Jun-12 20:29N 51°15' E 004°21'0 0.0
2018-Jun-12 19:59N 51°15' E 004°21'0 0.0
2018-Jun-12 19:29N 51°15' E 004°21'0 0.0
2018-Jun-12 18:59N 51°15' E 004°21'0 0.0
2018-Jun-12 18:29N 51°15' E 004°21'0 0.0
2018-Jun-12 17:59N 51°15' E 004°21'0 0.0
2018-Jun-12 17:29N 51°15' E 004°21'0 0.0
2018-Jun-12 16:59N 51°15' E 004°21'0 0.0
2018-Jun-12 16:26N 51°15' E 004°21'0 0.0
2018-Jun-12 15:59N 51°15' E 004°21'0 0.0
2018-Jun-12 15:29N 51°15' E 004°21'0 0.0
2018-Jun-12 14:59N 51°15' E 004°21'0 0.0
2018-Jun-12 14:29N 51°15' E 004°21'0 0.0
2018-Jun-12 13:59N 51°15' E 004°21'0 0.0
2018-Jun-12 13:29N 51°15' E 004°21'0 0.0
2018-Jun-12 12:59N 51°15' E 004°21'0 0.0
2018-Jun-12 12:29N 51°15' E 004°21'0 0.0
2018-Jun-12 11:59N 51°15' E 004°21'0 0.0
2018-Jun-12 11:29N 51°15' E 004°21'0 0.0
2018-Jun-12 10:59N 51°15' E 004°21'0 0.0
2018-Jun-12 10:29N 51°15' E 004°21'0 0.0
2018-Jun-12 09:59N 51°15' E 004°21'0 0.0
2018-Jun-12 09:29N 51°15' E 004°21'0 0.0
2018-Jun-12 08:59N 51°15' E 004°21'0 0.0
2018-Jun-12 08:29N 51°15' E 004°21'0 0.0
2018-Jun-12 07:59N 51°15' E 004°21'0 0.0
2018-Jun-12 07:29N 51°15' E 004°21'0 0.0
2018-Jun-12 06:59N 51°15' E 004°21'0 0.0
2018-Jun-12 06:29N 51°15' E 004°21'0 0.0
2018-Jun-12 05:59N 51°15' E 004°21'0 0.0
2018-Jun-12 05:29N 51°15' E 004°21'0 0.0
2018-Jun-12 04:59N 51°15' E 004°21'0 0.0
2018-Jun-12 04:29N 51°15' E 004°21'0 0.0
2018-Jun-12 03:59N 51°15' E 004°21'0 0.0
2018-Jun-12 03:29N 51°15' E 004°21'0 0.0
2018-Jun-12 02:59N 51°15' E 004°21'0 0.0
2018-Jun-12 02:29N 51°15' E 004°21'0 0.0
2018-Jun-12 01:59N 51°15' E 004°21'0 0.0
2018-Jun-12 01:29N 51°15' E 004°21'0 0.0
2018-Jun-12 00:59N 51°15' E 004°21'0 0.0
2018-Jun-12 00:29N 51°15' E 004°21'0 0.0
2018-Jun-11 23:59N 51°15' E 004°21'0 0.0
2018-Jun-11 23:29N 51°15' E 004°21'0 0.0
2018-Jun-11 22:59N 51°15' E 004°21'0 0.0
2018-Jun-11 22:29N 51°15' E 004°21'0 0.0
2018-Jun-11 21:59N 51°15' E 004°21'0 0.0
2018-Jun-11 21:29N 51°15' E 004°21'0 0.0
2018-Jun-11 20:59N 51°15' E 004°21'0 0.0
2018-Jun-11 20:29N 51°15' E 004°21'0 0.0
2018-Jun-11 19:59N 51°15' E 004°21'0 0.0
2018-Jun-11 19:29N 51°15' E 004°21'0 0.0
2018-Jun-11 18:59N 51°15' E 004°21'0 0.0
2018-Jun-11 18:29N 51°15' E 004°21'0 0.0
2018-Jun-11 17:59N 51°15' E 004°21'0 0.0
2018-Jun-11 17:29N 51°15' E 004°21'0 0.0
2018-Jun-11 16:59N 51°15' E 004°21'0 0.0
2018-Jun-11 16:29N 51°15' E 004°21'0 0.0
2018-Jun-11 15:59N 51°15' E 004°21'0 0.0
2018-Jun-11 15:29N 51°15' E 004°21'0 0.0
2018-Jun-11 14:59N 51°15' E 004°21'0 0.0
2018-Jun-11 14:29N 51°15' E 004°21'0 0.0
2018-Jun-11 13:59N 51°15' E 004°21'0 0.0
2018-Jun-11 13:29N 51°15' E 004°21'0 0.0
2018-Jun-11 12:59N 51°15' E 004°21'0 0.0
2018-Jun-11 12:29N 51°15' E 004°21'0 0.0
2018-Jun-11 11:59N 51°15' E 004°21'0 0.0
2018-Jun-11 11:26N 51°15' E 004°21'0 0.0
2018-Jun-11 10:59N 51°15' E 004°21'0 0.0
2018-Jun-11 10:29N 51°15' E 004°21'0 0.0
2018-Jun-11 09:59N 51°15' E 004°21'0 0.0
2018-Jun-11 09:29N 51°15' E 004°21'0 0.0
2018-Jun-11 08:59N 51°15' E 004°21'0 0.0
2018-Jun-11 08:29N 51°15' E 004°21'0 0.0
2018-Jun-11 07:59N 51°15' E 004°21'0 0.0
2018-Jun-11 07:29N 51°15' E 004°21'0 0.0
2018-Jun-11 06:59N 51°15' E 004°21'0 0.0
2018-Jun-11 06:29N 51°15' E 004°21'0 0.0
2018-Jun-11 05:59N 51°15' E 004°21'0 0.0
2018-Jun-11 05:29N 51°15' E 004°21'0 0.0
2018-Jun-11 04:59N 51°15' E 004°21'0 0.0
2018-Jun-11 04:29N 51°15' E 004°21'0 0.0
2018-Jun-11 03:59N 51°15' E 004°21'0 0.0
2018-Jun-11 03:29N 51°15' E 004°21'0 0.0
2018-Jun-11 02:59N 51°15' E 004°21'0 0.0
2018-Jun-11 02:29N 51°15' E 004°21'0 0.0
2018-Jun-11 01:59N 51°15' E 004°21'0 0.0
2018-Jun-11 01:29N 51°15' E 004°21'0 0.0
2018-Jun-11 00:59N 51°15' E 004°21'0 0.0
2018-Jun-11 00:26N 51°15' E 004°21'0 0.0
2018-Jun-10 23:59N 51°15' E 004°21'0 0.0
2018-Jun-10 23:29N 51°15' E 004°21'0 0.0
2018-Jun-10 22:59N 51°15' E 004°21'0 0.0
2018-Jun-10 22:29N 51°15' E 004°21'0 0.0
2018-Jun-10 21:59N 51°15' E 004°21'0 0.0
2018-Jun-10 21:29N 51°15' E 004°21'0 0.0
2018-Jun-10 20:59N 51°15' E 004°21'0 0.0
2018-Jun-10 20:29N 51°15' E 004°21'0 0.0
2018-Jun-10 19:59N 51°15' E 004°21'0 0.0
2018-Jun-10 19:29N 51°15' E 004°21'0 0.0
2018-Jun-10 18:59N 51°15' E 004°21'0 0.0
2018-Jun-10 18:29N 51°15' E 004°21'0 0.0
2018-Jun-10 17:59N 51°15' E 004°21'0 0.0
2018-Jun-10 17:29N 51°15' E 004°21'0 0.0
2018-Jun-10 16:59N 51°15' E 004°21'0 0.0
2018-Jun-10 16:29N 51°15' E 004°21'0 0.0
2018-Jun-10 15:59N 51°15' E 004°21'0 0.0
2018-Jun-10 15:29N 51°15' E 004°21'0 0.0
2018-Jun-10 14:59N 51°15' E 004°21'0 0.0
2018-Jun-10 13:59N 51°15' E 004°21'0 0.0
2018-Jun-10 13:29N 51°15' E 004°21'0 0.0
2018-Jun-10 12:59N 51°15' E 004°21'0 0.0
2018-Jun-10 12:29N 51°15' E 004°21'0 0.0
2018-Jun-10 11:59N 51°15' E 004°21'0 0.0
2018-Jun-10 11:29N 51°15' E 004°21'0 0.0
2018-Jun-10 10:59N 51°15' E 004°21'0 0.0
2018-Jun-10 10:29N 51°15' E 004°21'0 0.0
2018-Jun-10 09:59N 51°15' E 004°21'0 0.0
2018-Jun-10 09:29N 51°15' E 004°21'0 0.0
2018-Jun-10 08:59N 51°15' E 004°21'0 0.0
2018-Jun-10 08:29N 51°15' E 004°21'0 0.0
2018-Jun-10 07:59N 51°15' E 004°21'0 0.0
2018-Jun-10 07:29N 51°15' E 004°21'0 0.0
2018-Jun-10 06:59N 51°15' E 004°21'0 0.0
2018-Jun-10 06:29N 51°15' E 004°21'0 0.0
2018-Jun-10 05:59N 51°15' E 004°21'0 0.0
2018-Jun-10 05:29N 51°15' E 004°21'0 0.0
2018-Jun-10 04:59N 51°15' E 004°21'0 0.0
2018-Jun-10 04:29N 51°15' E 004°21'0 0.0
2018-Jun-10 03:59N 51°15' E 004°21'0 0.0
2018-Jun-10 03:29N 51°15' E 004°21'0 0.0
2018-Jun-10 02:59N 51°15' E 004°21'0 0.0
2018-Jun-10 02:29N 51°15' E 004°21'0 0.0
2018-Jun-10 01:59N 51°15' E 004°21'0 0.0
2018-Jun-10 01:29N 51°15' E 004°21'0 0.0
2018-Jun-10 00:59N 51°15' E 004°21'0 0.0
2018-Jun-10 00:29N 51°15' E 004°21'0 0.0
2018-Jun-09 23:59N 51°15' E 004°21'0 0.0
2018-Jun-09 23:29N 51°15' E 004°21'0 0.0
2018-Jun-09 22:59N 51°15' E 004°21'0 0.0
2018-Jun-09 22:29N 51°15' E 004°21'0 0.0
2018-Jun-09 21:59N 51°15' E 004°21'0 0.0
2018-Jun-09 21:29N 51°15' E 004°21'0 0.0
2018-Jun-09 20:59N 51°15' E 004°21'0 0.0
2018-Jun-09 20:29N 51°15' E 004°21'0 0.0
2018-Jun-09 19:59N 51°15' E 004°21'0 0.0
2018-Jun-09 19:29N 51°15' E 004°21'0 0.0
2018-Jun-09 18:59N 51°15' E 004°21'0 0.0
2018-Jun-09 18:29N 51°15' E 004°21'0 0.0
2018-Jun-09 17:59N 51°15' E 004°21'0 0.0
2018-Jun-09 17:29N 51°15' E 004°21'0 0.0
2018-Jun-09 16:59N 51°15' E 004°21'0 0.0
2018-Jun-09 16:29N 51°15' E 004°21'0 0.0
2018-Jun-09 15:59N 51°15' E 004°21'0 0.0
2018-Jun-09 15:29N 51°15' E 004°21'0 0.0
2018-Jun-09 14:29N 51°15' E 004°21'0 0.0
2018-Jun-09 13:59N 51°15' E 004°21'0 0.0
2018-Jun-09 13:29N 51°15' E 004°21'0 0.0
2018-Jun-09 12:59N 51°15' E 004°21'0 0.0
2018-Jun-09 12:29N 51°15' E 004°21'0 0.0
2018-Jun-09 11:59N 51°15' E 004°21'0 0.0
2018-Jun-09 11:29N 51°15' E 004°21'0 0.0
2018-Jun-09 10:59N 51°15' E 004°21'0 0.0
2018-Jun-09 10:29N 51°15' E 004°21'0 0.0
2018-Jun-09 09:59N 51°15' E 004°21'0 0.0
2018-Jun-09 09:29N 51°15' E 004°21'0 0.0
2018-Jun-09 08:59N 51°15' E 004°21'0 0.0
2018-Jun-09 08:29N 51°15' E 004°21'0 0.0
2018-Jun-09 07:59N 51°15' E 004°21'0 0.0
2018-Jun-09 07:29N 51°15' E 004°21'0 0.0
2018-Jun-09 06:59N 51°15' E 004°21'0 0.0
2018-Jun-09 06:29N 51°15' E 004°21'0 0.0
2018-Jun-09 05:59N 51°15' E 004°21'0 0.0
2018-Jun-09 05:29N 51°15' E 004°21'0 0.0
2018-Jun-09 04:59N 51°15' E 004°21'0 0.0
2018-Jun-09 04:29N 51°15' E 004°21'0 0.0
2018-Jun-09 03:59N 51°15' E 004°21'0 0.0
2018-Jun-09 03:29N 51°15' E 004°21'0 0.0
2018-Jun-09 02:59N 51°15' E 004°21'0 0.0
2018-Jun-09 02:29N 51°15' E 004°21'0 0.0
2018-Jun-09 01:59N 51°15' E 004°21'0 0.0
2018-Jun-09 01:29N 51°15' E 004°21'0 0.0
2018-Jun-09 00:59N 51°15' E 004°21'  
Track history (hours):
 
Tides and Currents Weather Stations Pressure Air Temp Water Temp Dewpoint Dewpoint Depression Visibility Wind Speed Wind Dir Waves Ship Positions

Nyk Rumina

Last reported at 2018-Jun-19 01:00 UTC. Time now 2018-Jun-19 00:56 UTC.
Position N 50°38' E 000°34'.

Length 294 m; draft 7.1 m.

Type: Ship. MMSI: 563758000.

Date/timePositionNaut miles runAvg speedWind from/ knotsBaromVisibWave heightAir tempDewpointWater temp
2018-Jun-19 01:00N 50°38' E 000°34'510.4
2018-Jun-19 00:30N 50°41' E 000°40'510.6
2018-Jun-19 00:00N 50°44' E 000°47'611.4
2018-Jun-18 23:30N 50°48' E 000°54'612.8
2018-Jun-18 23:00N 50°52' E 001°02'713.7
2018-Jun-18 22:30N 50°56' E 001°11'714.2
2018-Jun-18 22:00N 51°00' E 001°20'714.3
2018-Jun-18 21:30N 51°04' E 001°29'713.5
2018-Jun-18 21:01N 51°09' E 001°38'713.0
2018-Jun-18 20:31N 51°13' E 001°45'612.6
2018-Jun-18 20:00N 51°18' E 001°51'612.4
2018-Jun-18 19:30N 51°24' E 001°56'510.6
2018-Jun-18 19:01N 51°24' E 002°04'612.5
2018-Jun-18 18:30N 51°22' E 002°13'510.8
2018-Jun-18 18:01N 51°21' E 002°22'510.5
2018-Jun-18 17:30N 51°23' E 002°30'510.6
2018-Jun-18 17:00N 51°23' E 002°38'5 9.5
2018-Jun-18 16:31N 51°23' E 002°46'4 8.9
2018-Jun-18 16:00N 51°23' E 002°53'611.2
2018-Jun-18 15:30N 51°24' E 003°01'510.4
2018-Jun-18 15:00N 51°24' E 003°10'510.7
2018-Jun-18 14:30N 51°25' E 003°18'611.7
2018-Jun-18 14:01N 51°25' E 003°28'510.0
2018-Jun-18 13:31N 51°26' E 003°36'3 7.0
2018-Jun-18 13:01N 51°26' E 003°41'611.1
2018-Jun-18 12:31N 51°22' E 003°46'611.6
2018-Jun-18 12:00N 51°22' E 003°56'5 9.6
2018-Jun-18 11:30N 51°25' E 004°02'611.1
2018-Jun-18 11:00N 51°24' E 004°11'5 9.5
2018-Jun-18 10:31N 51°21' E 004°17'0 0.8
2018-Jun-18 10:00N 51°21' E 004°17'0 0.0
2018-Jun-18 09:30N 51°21' E 004°17'1 1.0
2018-Jun-18 09:00N 51°21' E 004°18'3 6.9
2018-Jun-18 08:31N 51°17' E 004°20'2 4.6
2018-Jun-18 08:01N 51°15' E 004°21'0 0.1
2018-Jun-18 07:30N 51°15' E 004°21'0 0.0
2018-Jun-18 07:00N 51°15' E 004°21'0 0.0
2018-Jun-18 06:30N 51°15' E 004°21'0 0.0
2018-Jun-18 06:00N 51°15' E 004°21'0 0.0
2018-Jun-18 05:30N 51°15' E 004°21'0 0.0
2018-Jun-18 05:00N 51°15' E 004°21'0 0.0
2018-Jun-18 04:30N 51°15' E 004°21'0 0.0
2018-Jun-18 04:00N 51°15' E 004°21'0 0.0
2018-Jun-18 03:30N 51°15' E 004°21'0 0.0
2018-Jun-18 03:01N 51°15' E 004°21'0 0.0
2018-Jun-18 02:30N 51°15' E 004°21'0 0.0
2018-Jun-18 02:00N 51°15' E 004°21'0 0.0
2018-Jun-18 01:30N 51°15' E 004°21'0 0.0
2018-Jun-18 01:00N 51°15' E 004°21'0 0.0
2018-Jun-18 00:30N 51°15' E 004°21'0 0.0
2018-Jun-18 00:00N 51°15' E 004°21'0 0.0
2018-Jun-17 23:30N 51°15' E 004°21'0 0.0
2018-Jun-17 22:57N 51°15' E 004°21'0 0.0
2018-Jun-17 22:27N 51°15' E 004°21'0 0.0
2018-Jun-17 22:00N 51°15' E 004°21'0 0.0
2018-Jun-17 21:30N 51°15' E 004°21'0 0.0
2018-Jun-17 21:00N 51°15' E 004°21'0 0.0
2018-Jun-17 20:30N 51°15' E 004°21'0 0.0
2018-Jun-17 20:00N 51°15' E 004°21'0 0.0
2018-Jun-17 19:30N 51°15' E 004°21'0 0.0
2018-Jun-17 19:00N 51°15' E 004°21'0 0.0
2018-Jun-17 18:30N 51°15' E 004°21'0 0.0
2018-Jun-17 18:00N 51°15' E 004°21'0 0.0
2018-Jun-17 17:30N 51°15' E 004°21'0 0.0
2018-Jun-17 17:00N 51°15' E 004°21'0 0.0
2018-Jun-17 16:30N 51°15' E 004°21'0 0.0
2018-Jun-17 16:00N 51°15' E 004°21'0 0.0
2018-Jun-17 15:27N 51°15' E 004°21'0 0.0
2018-Jun-17 15:00N 51°15' E 004°21'0 0.0
2018-Jun-17 14:30N 51°15' E 004°21'0 0.0
2018-Jun-17 14:00N 51°15' E 004°21'0 0.0
2018-Jun-17 13:30N 51°15' E 004°21'0 0.0
2018-Jun-17 13:00N 51°15' E 004°21'0 0.0
2018-Jun-17 12:30N 51°15' E 004°21'0 0.0
2018-Jun-17 12:00N 51°15' E 004°21'0 0.0
2018-Jun-17 11:30N 51°15' E 004°21'0 0.0
2018-Jun-17 11:00N 51°15' E 004°21'0 0.0
2018-Jun-17 10:30N 51°15' E 004°21'0 0.0
2018-Jun-17 10:01N 51°15' E 004°21'0 0.0
2018-Jun-17 09:30N 51°15' E 004°21'0 0.0
2018-Jun-17 09:00N 51°15' E 004°21'0 0.0
2018-Jun-17 08:30N 51°15' E 004°21'0 0.0
2018-Jun-17 08:00N 51°15' E 004°21'0 0.0
2018-Jun-17 07:30N 51°15' E 004°21'0 0.0
2018-Jun-17 07:00N 51°15' E 004°21'0 0.0
2018-Jun-17 06:30N 51°15' E 004°21'0 0.0
2018-Jun-17 06:00N 51°15' E 004°21'0 0.0
2018-Jun-17 05:30N 51°15' E 004°21'0 0.0
2018-Jun-17 05:00N 51°15' E 004°21'0 0.0
2018-Jun-17 04:30N 51°15' E 004°21'0 0.0
2018-Jun-17 04:00N 51°15' E 004°21'0 0.0
2018-Jun-17 03:30N 51°15' E 004°21'0 0.0
2018-Jun-17 03:00N 51°15' E 004°21'0 0.0
2018-Jun-17 02:30N 51°15' E 004°21'0 0.0
2018-Jun-17 02:00N 51°15' E 004°21'0 0.0
2018-Jun-17 01:30N 51°15' E 004°21'0 0.0
2018-Jun-17 01:00N 51°15' E 004°21'0 0.0
2018-Jun-17 00:30N 51°15' E 004°21'0 0.0
2018-Jun-17 00:00N 51°15' E 004°21'0 0.0
2018-Jun-16 23:30N 51°15' E 004°21'0 0.0
2018-Jun-16 23:00N 51°15' E 004°21'0 0.0
2018-Jun-16 22:30N 51°15' E 004°21'0 0.0
2018-Jun-16 22:00N 51°15' E 004°21'0 0.0
2018-Jun-16 21:30N 51°15' E 004°21'0 0.0
2018-Jun-16 21:00N 51°15' E 004°21'0 0.0
2018-Jun-16 20:30N 51°15' E 004°21'0 0.0
2018-Jun-16 20:00N 51°15' E 004°21'0 0.0
2018-Jun-16 19:30N 51°15' E 004°21'0 0.0
2018-Jun-16 19:00N 51°15' E 004°21'0 0.0
2018-Jun-16 18:30N 51°15' E 004°21'0 0.0
2018-Jun-16 18:00N 51°15' E 004°21'0 0.0
2018-Jun-16 17:30N 51°15' E 004°21'0 0.0
2018-Jun-16 17:00N 51°15' E 004°21'0 0.0
2018-Jun-16 16:30N 51°15' E 004°21'0 0.0
2018-Jun-16 16:00N 51°15' E 004°21'0 0.0
2018-Jun-16 15:30N 51°15' E 004°21'0 0.0
2018-Jun-16 15:00N 51°15' E 004°21'0 0.0
2018-Jun-16 14:30N 51°15' E 004°21'0 0.0
2018-Jun-16 14:00N 51°15' E 004°21'0 0.0
2018-Jun-16 13:30N 51°15' E 004°21'0 0.0
2018-Jun-16 13:00N 51°15' E 004°21'0 0.0
2018-Jun-16 12:30N 51°15' E 004°21'0 0.0
2018-Jun-16 11:57N 51°15' E 004°21'0 0.0
2018-Jun-16 11:30N 51°15' E 004°21'0 0.0
2018-Jun-16 11:00N 51°15' E 004°21'0 0.0
2018-Jun-16 10:30N 51°15' E 004°21'0 0.0
2018-Jun-16 10:00N 51°15' E 004°21'0 0.0
2018-Jun-16 09:30N 51°15' E 004°21'0 0.0
2018-Jun-16 09:00N 51°15' E 004°21'0 0.0
2018-Jun-16 08:30N 51°15' E 004°21'0 0.0
2018-Jun-16 08:00N 51°15' E 004°21'0 0.0
2018-Jun-16 07:30N 51°15' E 004°21'0 0.0
2018-Jun-16 07:00N 51°15' E 004°21'0 0.0
2018-Jun-16 06:30N 51°15' E 004°21'0 0.0
2018-Jun-16 06:00N 51°15' E 004°21'0 0.0
2018-Jun-16 05:30N 51°15' E 004°21'0 0.0
2018-Jun-16 05:00N 51°15' E 004°21'0 0.0
2018-Jun-16 04:30N 51°15' E 004°21'0 0.0
2018-Jun-16 04:00N 51°15' E 004°21'0 0.0
2018-Jun-16 03:30N 51°15' E 004°21'0 0.0
2018-Jun-16 03:00N 51°15' E 004°21'0 0.0
2018-Jun-16 02:30N 51°15' E 004°21'0 0.0
2018-Jun-16 02:00N 51°15' E 004°21'0 0.0
2018-Jun-16 01:30N 51°15' E 004°21'0 0.0
2018-Jun-16 01:00N 51°15' E 004°21'0 0.0
2018-Jun-16 00:30N 51°15' E 004°21'0 0.0
2018-Jun-16 00:00N 51°15' E 004°21'0 0.0
2018-Jun-15 23:30N 51°15' E 004°21'0 0.0
2018-Jun-15 23:00N 51°15' E 004°21'0 0.0
2018-Jun-15 22:30N 51°15' E 004°21'0 0.0
2018-Jun-15 22:01N 51°15' E 004°21'0 0.0
2018-Jun-15 21:30N 51°15' E 004°21'0 0.0
2018-Jun-15 21:00N 51°15' E 004°21'0 0.0
2018-Jun-15 20:30N 51°15' E 004°21'0 0.0
2018-Jun-15 20:00N 51°15' E 004°21'0 0.0
2018-Jun-15 19:30N 51°15' E 004°21'0 0.0
2018-Jun-15 19:00N 51°15' E 004°21'0 0.0
2018-Jun-15 18:30N 51°15' E 004°21'0 0.0
2018-Jun-15 18:00N 51°15' E 004°21'0 0.0
2018-Jun-15 17:30N 51°15' E 004°21'0 0.0
2018-Jun-15 17:00N 51°15' E 004°21'0 0.0
2018-Jun-15 16:27N 51°15' E 004°21'0 0.0
2018-Jun-15 16:00N 51°15' E 004°21'0 0.0
2018-Jun-15 15:30N 51°15' E 004°21'0 0.0
2018-Jun-15 15:00N 51°15' E 004°21'0 0.0
2018-Jun-15 14:30N 51°15' E 004°21'0 0.0
2018-Jun-15 14:00N 51°15' E 004°21'0 0.0
2018-Jun-15 13:30N 51°15' E 004°21'0 0.0
2018-Jun-15 13:00N 51°15' E 004°21'0 0.0
2018-Jun-15 12:30N 51°15' E 004°21'0 0.0
2018-Jun-15 12:00N 51°15' E 004°21'0 0.0
2018-Jun-15 11:30N 51°15' E 004°21'0 0.0
2018-Jun-15 11:00N 51°15' E 004°21'0 0.1
2018-Jun-15 10:30N 51°15' E 004°21'0 0.1
2018-Jun-15 09:59N 51°15' E 004°21'0 0.0
2018-Jun-15 09:29N 51°15' E 004°21'0 0.0
2018-Jun-15 08:59N 51°15' E 004°21'0 0.0
2018-Jun-15 08:29N 51°15' E 004°21'0 0.0
2018-Jun-15 07:59N 51°15' E 004°21'0 0.0
2018-Jun-15 07:29N 51°15' E 004°21'0 0.0
2018-Jun-15 06:59N 51°15' E 004°21'0 0.0
2018-Jun-15 06:29N 51°15' E 004°21'0 0.0
2018-Jun-15 05:59N 51°15' E 004°21'0 0.0
2018-Jun-15 05:29N 51°15' E 004°21'0 0.0
2018-Jun-15 04:59N 51°15' E 004°21'0 0.0
2018-Jun-15 04:29N 51°15' E 004°21'0 0.0
2018-Jun-15 03:59N 51°15' E 004°21'0 0.0
2018-Jun-15 03:29N 51°15' E 004°21'0 0.0
2018-Jun-15 02:59N 51°15' E 004°21'0 0.0
2018-Jun-15 02:29N 51°15' E 004°21'0 0.0
2018-Jun-15 01:59N 51°15' E 004°21'0 0.0
2018-Jun-15 01:29N 51°15' E 004°21'0 0.0
2018-Jun-15 00:59N 51°15' E 004°21'0 0.0
2018-Jun-15 00:29N 51°15' E 004°21'0 0.0
2018-Jun-14 23:59N 51°15' E 004°21'0 0.0
2018-Jun-14 23:29N 51°15' E 004°21'0 0.0
2018-Jun-14 22:59N 51°15' E 004°21'0 0.0
2018-Jun-14 22:29N 51°15' E 004°21'0 0.0
2018-Jun-14 21:59N 51°15' E 004°21'0 0.0
2018-Jun-14 21:29N 51°15' E 004°21'0 0.0
2018-Jun-14 20:59N 51°15' E 004°21'0 0.0
2018-Jun-14 20:29N 51°15' E 004°21'0 0.0
2018-Jun-14 19:59N 51°15' E 004°21'0 0.0
2018-Jun-14 19:29N 51°15' E 004°21'0 0.0
2018-Jun-14 18:59N 51°15' E 004°21'0 0.0
2018-Jun-14 18:29N 51°15' E 004°21'0 0.0
2018-Jun-14 17:59N 51°15' E 004°21'0 0.0
2018-Jun-14 17:29N 51°15' E 004°21'0 0.0
2018-Jun-14 16:59N 51°15' E 004°21'0 0.0
2018-Jun-14 16:29N 51°15' E 004°21'0 0.0
2018-Jun-14 15:59N 51°15' E 004°21'0 0.0
2018-Jun-14 15:29N 51°15' E 004°21'0 0.0
2018-Jun-14 14:56N 51°15' E 004°21'0 0.0
2018-Jun-14 14:29N 51°15' E 004°21'0 0.0
2018-Jun-14 13:59N 51°15' E 004°21'0 0.0
2018-Jun-14 13:29N 51°15' E 004°21'0 0.0
2018-Jun-14 12:56N 51°15' E 004°21'0 0.0
2018-Jun-14 12:29N 51°15' E 004°21'0 0.0
2018-Jun-14 11:59N 51°15' E 004°21'0 0.0
2018-Jun-14 11:29N 51°15' E 004°21'0 0.0
2018-Jun-14 10:56N 51°15' E 004°21'0 0.0
2018-Jun-14 10:29N 51°15' E 004°21'0 0.0
2018-Jun-14 09:59N 51°15' E 004°21'0 0.0
2018-Jun-14 09:29N 51°15' E 004°21'0 0.0
2018-Jun-14 08:59N 51°15' E 004°21'0 0.0
2018-Jun-14 08:29N 51°15' E 004°21'0 0.0
2018-Jun-14 07:59N 51°15' E 004°21'0 0.0
2018-Jun-14 07:29N 51°15' E 004°21'0 0.0
2018-Jun-14 06:59N 51°15' E 004°21'0 0.0
2018-Jun-14 06:29N 51°15' E 004°21'0 0.0
2018-Jun-14 05:59N 51°15' E 004°21'0 0.0
2018-Jun-14 05:29N 51°15' E 004°21'0 0.0
2018-Jun-14 04:59N 51°15' E 004°21'0 0.0
2018-Jun-14 04:29N 51°15' E 004°21'0 0.0
2018-Jun-14 03:59N 51°15' E 004°21'0 0.0
2018-Jun-14 03:26N 51°15' E 004°21'0 0.0
2018-Jun-14 02:56N 51°15' E 004°21'0 0.0
2018-Jun-14 02:29N 51°15' E 004°21'0 0.0
2018-Jun-14 01:59N 51°15' E 004°21'0 0.0
2018-Jun-14 01:29N 51°15' E 004°21'0 0.0
2018-Jun-14 00:59N 51°15' E 004°21'0 0.0
2018-Jun-14 00:29N 51°15' E 004°21'0 0.0
2018-Jun-13 23:59N 51°15' E 004°21'0 0.0
2018-Jun-13 23:29N 51°15' E 004°21'0 0.0
2018-Jun-13 22:59N 51°15' E 004°21'0 0.0
2018-Jun-13 22:29N 51°15' E 004°21'0 0.0
2018-Jun-13 21:59N 51°15' E 004°21'0 0.0
2018-Jun-13 21:29N 51°15' E 004°21'0 0.0
2018-Jun-13 20:59N 51°15' E 004°21'0 0.0
2018-Jun-13 20:29N 51°15' E 004°21'0 0.0
2018-Jun-13 19:59N 51°15' E 004°21'0 0.0
2018-Jun-13 19:29N 51°15' E 004°21'0 0.0
2018-Jun-13 18:59N 51°15' E 004°21'0 0.0
2018-Jun-13 18:29N 51°15' E 004°21'0 0.0
2018-Jun-13 17:59N 51°15' E 004°21'0 0.0
2018-Jun-13 17:26N 51°15' E 004°21'0 0.0
2018-Jun-13 16:59N 51°15' E 004°21'0 0.0
2018-Jun-13 16:29N 51°15' E 004°21'0 0.0
2018-Jun-13 15:59N 51°15' E 004°21'0 0.0
2018-Jun-13 15:29N 51°15' E 004°21'0 0.0
2018-Jun-13 14:59N 51°15' E 004°21'0 0.0
2018-Jun-13 14:29N 51°15' E 004°21'0 0.0
2018-Jun-13 13:59N 51°15' E 004°21'0 0.0
2018-Jun-13 13:29N 51°15' E 004°21'0 0.0
2018-Jun-13 12:59N 51°15' E 004°21'0 0.0
2018-Jun-13 12:29N 51°15' E 004°21'0 0.0
2018-Jun-13 11:59N 51°15' E 004°21'0 0.0
2018-Jun-13 11:29N 51°15' E 004°21'0 0.0
2018-Jun-13 10:59N 51°15' E 004°21'0 0.0
2018-Jun-13 10:29N 51°15' E 004°21'0 0.0
2018-Jun-13 09:59N 51°15' E 004°21'0 0.0
2018-Jun-13 09:29N 51°15' E 004°21'0 0.0
2018-Jun-13 08:59N 51°15' E 004°21'0 0.0
2018-Jun-13 08:29N 51°15' E 004°21'0 0.0
2018-Jun-13 07:59N 51°15' E 004°21'0 0.0
2018-Jun-13 07:29N 51°15' E 004°21'0 0.0
2018-Jun-13 06:59N 51°15' E 004°21'0 0.0
2018-Jun-13 06:29N 51°15' E 004°21'0 0.0
2018-Jun-13 05:59N 51°15' E 004°21'0 0.0
2018-Jun-13 05:29N 51°15' E 004°21'0 0.0
2018-Jun-13 04:59N 51°15' E 004°21'0 0.0
2018-Jun-13 04:29N 51°15' E 004°21'0 0.0
2018-Jun-13 03:59N 51°15' E 004°21'0 0.0
2018-Jun-13 03:29N 51°15' E 004°21'0 0.0
2018-Jun-13 02:59N 51°15' E 004°21'0 0.0
2018-Jun-13 02:29N 51°15' E 004°21'0 0.0
2018-Jun-13 01:59N 51°15' E 004°21'0 0.0
2018-Jun-13 01:29N 51°15' E 004°21'0 0.0
2018-Jun-13 00:59N 51°15' E 004°21'0 0.0
2018-Jun-13 00:29N 51°15' E 004°21'0 0.0
2018-Jun-12 23:59N 51°15' E 004°21'0 0.0
2018-Jun-12 23:29N 51°15' E 004°21'0 0.0
2018-Jun-12 22:59N 51°15' E 004°21'0 0.0
2018-Jun-12 22:29N 51°15' E 004°21'0 0.0
2018-Jun-12 21:59N 51°15' E 004°21'0 0.0
2018-Jun-12 21:29N 51°15' E 004°21'0 0.0
2018-Jun-12 20:59N 51°15' E 004°21'0 0.0
2018-Jun-12 20:29N 51°15' E 004°21'0 0.0
2018-Jun-12 19:59N 51°15' E 004°21'0 0.0
2018-Jun-12 19:29N 51°15' E 004°21'0 0.0
2018-Jun-12 18:59N 51°15' E 004°21'0 0.0
2018-Jun-12 18:29N 51°15' E 004°21'0 0.0
2018-Jun-12 17:59N 51°15' E 004°21'0 0.0
2018-Jun-12 17:29N 51°15' E 004°21'0 0.0
2018-Jun-12 16:59N 51°15' E 004°21'0 0.0
2018-Jun-12 16:26N 51°15' E 004°21'0 0.0
2018-Jun-12 15:59N 51°15' E 004°21'0 0.0
2018-Jun-12 15:29N 51°15' E 004°21'0 0.0
2018-Jun-12 14:59N 51°15' E 004°21'0 0.0
2018-Jun-12 14:29N 51°15' E 004°21'0 0.0
2018-Jun-12 13:59N 51°15' E 004°21'0 0.0
2018-Jun-12 13:29N 51°15' E 004°21'0 0.0
2018-Jun-12 12:59N 51°15' E 004°21'0 0.0
2018-Jun-12 12:29N 51°15' E 004°21'0 0.0
2018-Jun-12 11:59N 51°15' E 004°21'0 0.0
2018-Jun-12 11:29N 51°15' E 004°21'0 0.0
2018-Jun-12 10:59N 51°15' E 004°21'0 0.0
2018-Jun-12 10:29N 51°15' E 004°21'0 0.0
2018-Jun-12 09:59N 51°15' E 004°21'0 0.0
2018-Jun-12 09:29N 51°15' E 004°21'0 0.0
2018-Jun-12 08:59N 51°15' E 004°21'0 0.0
2018-Jun-12 08:29N 51°15' E 004°21'0 0.0
2018-Jun-12 07:59N 51°15' E 004°21'0 0.0
2018-Jun-12 07:29N 51°15' E 004°21'0 0.0
2018-Jun-12 06:59N 51°15' E 004°21'0 0.0
2018-Jun-12 06:29N 51°15' E 004°21'0 0.0
2018-Jun-12 05:59N 51°15' E 004°21'0 0.0
2018-Jun-12 05:29N 51°15' E 004°21'0 0.0
2018-Jun-12 04:59N 51°15' E 004°21'0 0.0
2018-Jun-12 04:29N 51°15' E 004°21'0 0.0
2018-Jun-12 03:59N 51°15' E 004°21'0 0.0
2018-Jun-12 03:29N 51°15' E 004°21'0 0.0
2018-Jun-12 02:59N 51°15' E 004°21'0 0.0
2018-Jun-12 02:29N 51°15' E 004°21'0 0.0
2018-Jun-12 01:59N 51°15' E 004°21'0 0.0
2018-Jun-12 01:29N 51°15' E 004°21'0 0.0
2018-Jun-12 00:59N 51°15' E 004°21'0 0.0
2018-Jun-12 00:29N 51°15' E 004°21'0 0.0
2018-Jun-11 23:59N 51°15' E 004°21'0 0.0
2018-Jun-11 23:29N 51°15' E 004°21'0 0.0
2018-Jun-11 22:59N 51°15' E 004°21'0 0.0
2018-Jun-11 22:29N 51°15' E 004°21'0 0.0
2018-Jun-11 21:59N 51°15' E 004°21'0 0.0
2018-Jun-11 21:29N 51°15' E 004°21'0 0.0
2018-Jun-11 20:59N 51°15' E 004°21'0 0.0
2018-Jun-11 20:29N 51°15' E 004°21'0 0.0
2018-Jun-11 19:59N 51°15' E 004°21'0 0.0
2018-Jun-11 19:29N 51°15' E 004°21'0 0.0
2018-Jun-11 18:59N 51°15' E 004°21'0 0.0
2018-Jun-11 18:29N 51°15' E 004°21'0 0.0
2018-Jun-11 17:59N 51°15' E 004°21'0 0.0
2018-Jun-11 17:29N 51°15' E 004°21'0 0.0
2018-Jun-11 16:59N 51°15' E 004°21'0 0.0
2018-Jun-11 16:29N 51°15' E 004°21'0 0.0
2018-Jun-11 15:59N 51°15' E 004°21'0 0.0
2018-Jun-11 15:29N 51°15' E 004°21'0 0.0
2018-Jun-11 14:59N 51°15' E 004°21'0 0.0
2018-Jun-11 14:29N 51°15' E 004°21'0 0.0
2018-Jun-11 13:59N 51°15' E 004°21'0 0.0
2018-Jun-11 13:29N 51°15' E 004°21'0 0.0
2018-Jun-11 12:59N 51°15' E 004°21'0 0.0
2018-Jun-11 12:29N 51°15' E 004°21'0 0.0
2018-Jun-11 11:59N 51°15' E 004°21'0 0.0
2018-Jun-11 11:26N 51°15' E 004°21'0 0.0
2018-Jun-11 10:59N 51°15' E 004°21'0 0.0
2018-Jun-11 10:29N 51°15' E 004°21'0 0.0
2018-Jun-11 09:59N 51°15' E 004°21'0 0.0
2018-Jun-11 09:29N 51°15' E 004°21'0 0.0
2018-Jun-11 08:59N 51°15' E 004°21'0 0.0
2018-Jun-11 08:29N 51°15' E 004°21'0 0.0
2018-Jun-11 07:59N 51°15' E 004°21'0 0.0
2018-Jun-11 07:29N 51°15' E 004°21'0 0.0
2018-Jun-11 06:59N 51°15' E 004°21'0 0.0
2018-Jun-11 06:29N 51°15' E 004°21'0 0.0
2018-Jun-11 05:59N 51°15' E 004°21'0 0.0
2018-Jun-11 05:29N 51°15' E 004°21'0 0.0
2018-Jun-11 04:59N 51°15' E 004°21'0 0.0
2018-Jun-11 04:29N 51°15' E 004°21'0 0.0
2018-Jun-11 03:59N 51°15' E 004°21'0 0.0
2018-Jun-11 03:29N 51°15' E 004°21'0 0.0
2018-Jun-11 02:59N 51°15' E 004°21'0 0.0
2018-Jun-11 02:29N 51°15' E 004°21'0 0.0
2018-Jun-11 01:59N 51°15' E 004°21'0 0.0
2018-Jun-11 01:29N 51°15' E 004°21'0 0.0
2018-Jun-11 00:59N 51°15' E 004°21'0 0.0
2018-Jun-11 00:26N 51°15' E 004°21'0 0.0
2018-Jun-10 23:59N 51°15' E 004°21'0 0.0
2018-Jun-10 23:29N 51°15' E 004°21'0 0.0
2018-Jun-10 22:59N 51°15' E 004°21'0 0.0
2018-Jun-10 22:29N 51°15' E 004°21'0 0.0
2018-Jun-10 21:59N 51°15' E 004°21'0 0.0
2018-Jun-10 21:29N 51°15' E 004°21'0 0.0
2018-Jun-10 20:59N 51°15' E 004°21'0 0.0
2018-Jun-10 20:29N 51°15' E 004°21'0 0.0
2018-Jun-10 19:59N 51°15' E 004°21'0 0.0
2018-Jun-10 19:29N 51°15' E 004°21'0 0.0
2018-Jun-10 18:59N 51°15' E 004°21'0 0.0
2018-Jun-10 18:29N 51°15' E 004°21'0 0.0
2018-Jun-10 17:59N 51°15' E 004°21'0 0.0
2018-Jun-10 17:29N 51°15' E 004°21'0 0.0
2018-Jun-10 16:59N 51°15' E 004°21'0 0.0
2018-Jun-10 16:29N 51°15' E 004°21'0 0.0
2018-Jun-10 15:59N 51°15' E 004°21'0 0.0
2018-Jun-10 15:29N 51°15' E 004°21'0 0.0
2018-Jun-10 14:59N 51°15' E 004°21'0 0.0
2018-Jun-10 13:59N 51°15' E 004°21'0 0.0
2018-Jun-10 13:29N 51°15' E 004°21'0 0.0
2018-Jun-10 12:59N 51°15' E 004°21'0 0.0
2018-Jun-10 12:29N 51°15' E 004°21'0 0.0
2018-Jun-10 11:59N 51°15' E 004°21'0 0.0
2018-Jun-10 11:29N 51°15' E 004°21'0 0.0
2018-Jun-10 10:59N 51°15' E 004°21'0 0.0
2018-Jun-10 10:29N 51°15' E 004°21'0 0.0
2018-Jun-10 09:59N 51°15' E 004°21'0 0.0
2018-Jun-10 09:29N 51°15' E 004°21'0 0.0
2018-Jun-10 08:59N 51°15' E 004°21'0 0.0
2018-Jun-10 08:29N 51°15' E 004°21'0 0.0
2018-Jun-10 07:59N 51°15' E 004°21'0 0.0
2018-Jun-10 07:29N 51°15' E 004°21'0 0.0
2018-Jun-10 06:59N 51°15' E 004°21'0 0.0
2018-Jun-10 06:29N 51°15' E 004°21'0 0.0
2018-Jun-10 05:59N 51°15' E 004°21'0 0.0
2018-Jun-10 05:29N 51°15' E 004°21'0 0.0
2018-Jun-10 04:59N 51°15' E 004°21'0 0.0
2018-Jun-10 04:29N 51°15' E 004°21'0 0.0
2018-Jun-10 03:59N 51°15' E 004°21'0 0.0
2018-Jun-10 03:29N 51°15' E 004°21'0 0.0
2018-Jun-10 02:59N 51°15' E 004°21'0 0.0
2018-Jun-10 02:29N 51°15' E 004°21'0 0.0
2018-Jun-10 01:59N 51°15' E 004°21'0 0.0
2018-Jun-10 01:29N 51°15' E 004°21'0 0.0
2018-Jun-10 00:59N 51°15' E 004°21'0 0.0
2018-Jun-10 00:29N 51°15' E 004°21'0 0.0
2018-Jun-09 23:59N 51°15' E 004°21'0 0.0
2018-Jun-09 23:29N 51°15' E 004°21'0 0.0
2018-Jun-09 22:59N 51°15' E 004°21'0 0.0
2018-Jun-09 22:29N 51°15' E 004°21'0 0.0
2018-Jun-09 21:59N 51°15' E 004°21'0 0.0
2018-Jun-09 21:29N 51°15' E 004°21'0 0.0
2018-Jun-09 20:59N 51°15' E 004°21'0 0.0
2018-Jun-09 20:29N 51°15' E 004°21'0 0.0
2018-Jun-09 19:59N 51°15' E 004°21'0 0.0
2018-Jun-09 19:29N 51°15' E 004°21'0 0.0
2018-Jun-09 18:59N 51°15' E 004°21'0 0.0
2018-Jun-09 18:29N 51°15' E 004°21'0 0.0
2018-Jun-09 17:59N 51°15' E 004°21'0 0.0
2018-Jun-09 17:29N 51°15' E 004°21'0 0.0
2018-Jun-09 16:59N 51°15' E 004°21'0 0.0
2018-Jun-09 16:29N 51°15' E 004°21'0 0.0
2018-Jun-09 15:59N 51°15' E 004°21'0 0.0
2018-Jun-09 15:29N 51°15' E 004°21'0 0.0
2018-Jun-09 14:29N 51°15' E 004°21'0 0.0
2018-Jun-09 13:59N 51°15' E 004°21'0 0.0
2018-Jun-09 13:29N 51°15' E 004°21'0 0.0
2018-Jun-09 12:59N 51°15' E 004°21'0 0.0
2018-Jun-09 12:29N 51°15' E 004°21'0 0.0
2018-Jun-09 11:59N 51°15' E 004°21'0 0.0
2018-Jun-09 11:29N 51°15' E 004°21'0 0.0
2018-Jun-09 10:59N 51°15' E 004°21'0 0.0
2018-Jun-09 10:29N 51°15' E 004°21'0 0.0
2018-Jun-09 09:59N 51°15' E 004°21'0 0.0
2018-Jun-09 09:29N 51°15' E 004°21'0 0.0
2018-Jun-09 08:59N 51°15' E 004°21'0 0.0
2018-Jun-09 08:29N 51°15' E 004°21'0 0.0
2018-Jun-09 07:59N 51°15' E 004°21'0 0.0
2018-Jun-09 07:29N 51°15' E 004°21'0 0.0
2018-Jun-09 06:59N 51°15' E 004°21'0 0.0
2018-Jun-09 06:29N 51°15' E 004°21'0 0.0
2018-Jun-09 05:59N 51°15' E 004°21'0 0.0
2018-Jun-09 05:29N 51°15' E 004°21'0 0.0
2018-Jun-09 04:59N 51°15' E 004°21'0 0.0
2018-Jun-09 04:29N 51°15' E 004°21'0 0.0
2018-Jun-09 03:59N 51°15' E 004°21'0 0.0
2018-Jun-09 03:29N 51°15' E 004°21'0 0.0
2018-Jun-09 02:59N 51°15' E 004°21'0 0.0
2018-Jun-09 02:29N 51°15' E 004°21'0 0.0
2018-Jun-09 01:59N 51°15' E 004°21'0 0.0
2018-Jun-09 01:29N 51°15' E 004°21'0 0.0
2018-Jun-09 00:59N 51°15' E 004°21'  

Dump ship's entire track history